sensor_id;sensor_type;location;lat;lon;timestamp;pressure;altitude;pressure_sealevel;temperature;humidity
31299;BME280;17927;52.350;13.402;2023-12-20T00:00:59;100579.53;;;10.20;67.86
31299;BME280;17927;52.350;13.402;2023-12-20T00:03:24;100577.72;;;10.20;67.91
31299;BME280;17927;52.350;13.402;2023-12-20T00:05:50;100575.84;;;10.21;67.68
31299;BME280;17927;52.350;13.402;2023-12-20T00:08:16;100577.56;;;10.22;67.96
31299;BME280;17927;52.350;13.402;2023-12-20T00:10:41;100574.03;;;10.21;67.86
31299;BME280;17927;52.350;13.402;2023-12-20T00:13:06;100566.75;;;10.22;67.81
31299;BME280;17927;52.350;13.402;2023-12-20T00:15:33;100564.94;;;10.23;67.51
31299;BME280;17927;52.350;13.402;2023-12-20T00:17:58;100556.97;;;10.21;67.81
31299;BME280;17927;52.350;13.402;2023-12-20T00:20:23;100565.06;;;10.21;67.46
31299;BME280;17927;52.350;13.402;2023-12-20T00:22:48;100558.81;;;10.20;67.63
31299;BME280;17927;52.350;13.402;2023-12-20T00:25:14;100560.66;;;10.20;67.81
31299;BME280;17927;52.350;13.402;2023-12-20T00:27:39;100562.50;;;10.19;67.56
31299;BME280;17927;52.350;13.402;2023-12-20T00:30:05;100555.41;;;10.18;67.80
31299;BME280;17927;52.350;13.402;2023-12-20T00:32:30;100558.09;;;10.18;67.76
31299;BME280;17927;52.350;13.402;2023-12-20T00:34:55;100546.47;;;10.18;67.54
31299;BME280;17927;52.350;13.402;2023-12-20T00:37:21;100544.63;;;10.18;67.83
31299;BME280;17927;52.350;13.402;2023-12-20T00:39:46;100543.63;;;10.19;67.59
31299;BME280;17927;52.350;13.402;2023-12-20T00:42:11;100551.56;;;10.21;67.62
31299;BME280;17927;52.350;13.402;2023-12-20T00:44:37;100548.84;;;10.21;67.45
31299;BME280;17927;52.350;13.402;2023-12-20T00:47:02;100552.44;;;10.21;67.68
31299;BME280;17927;52.350;13.402;2023-12-20T00:49:28;100539.75;;;10.22;67.71
31299;BME280;17927;52.350;13.402;2023-12-20T00:51:53;100545.16;;;10.22;67.47
31299;BME280;17927;52.350;13.402;2023-12-20T00:54:18;100543.47;;;10.21;67.60
31299;BME280;17927;52.350;13.402;2023-12-20T00:56:44;100545.16;;;10.22;67.65
31299;BME280;17927;52.350;13.402;2023-12-20T00:59:09;100538.94;;;10.21;67.63
31299;BME280;17927;52.350;13.402;2023-12-20T01:01:34;100544.16;;;10.23;67.43
31299;BME280;17927;52.350;13.402;2023-12-20T01:04:00;100543.34;;;10.23;67.50
31299;BME280;17927;52.350;13.402;2023-12-20T01:06:25;100544.31;;;10.21;67.79
31299;BME280;17927;52.350;13.402;2023-12-20T01:08:50;100547.16;;;10.20;67.45
31299;BME280;17927;52.350;13.402;2023-12-20T01:11:15;100546.47;;;10.18;67.42
31299;BME280;17927;52.350;13.402;2023-12-20T01:13:41;100539.94;;;10.20;67.73
31299;BME280;17927;52.350;13.402;2023-12-20T01:16:06;100536.34;;;10.20;67.86
31299;BME280;17927;52.350;13.402;2023-12-20T01:18:33;100534.53;;;10.20;67.78
31299;BME280;17927;52.350;13.402;2023-12-20T01:21:02;100537.94;;;10.23;67.51
31299;BME280;17927;52.350;13.402;2023-12-20T01:23:28;100537.06;;;10.22;67.69
31299;BME280;17927;52.350;13.402;2023-12-20T01:25:53;100536.06;;;10.23;67.70
31299;BME280;17927;52.350;13.402;2023-12-20T01:28:19;100544.16;;;10.23;67.56
31299;BME280;17927;52.350;13.402;2023-12-20T01:30:44;100551.56;;;10.21;67.68
31299;BME280;17927;52.350;13.402;2023-12-20T01:33:09;100551.44;;;10.23;67.65
31299;BME280;17927;52.350;13.402;2023-12-20T01:35:34;100547.03;;;10.21;67.71
31299;BME280;17927;52.350;13.402;2023-12-20T01:38:00;100548.84;;;10.21;67.85
31299;BME280;17927;52.350;13.402;2023-12-20T01:40:25;100541.63;;;10.21;67.79
31299;BME280;17927;52.350;13.402;2023-12-20T01:43:01;100536.22;;;10.21;67.75
31299;BME280;17927;52.350;13.402;2023-12-20T01:45:26;100539.94;;;10.20;67.83
31299;BME280;17927;52.350;13.402;2023-12-20T01:47:51;100533.66;;;10.20;67.93
31299;BME280;17927;52.350;13.402;2023-12-20T01:50:17;100526.44;;;10.20;67.89
31299;BME280;17927;52.350;13.402;2023-12-20T01:52:43;100534.53;;;10.20;67.78
31299;BME280;17927;52.350;13.402;2023-12-20T01:55:08;100536.50;;;10.18;67.82
31299;BME280;17927;52.350;13.402;2023-12-20T01:57:39;100528.41;;;10.18;67.82
31299;BME280;17927;52.350;13.402;2023-12-20T02:00:07;100524.00;;;10.17;67.91
31299;BME280;17927;52.350;13.402;2023-12-20T02:02:36;100512.50;;;10.15;67.95
31299;BME280;17927;52.350;13.402;2023-12-20T02:05:04;100522.31;;;10.16;68.11
31299;BME280;17927;52.350;13.402;2023-12-20T02:07:30;100502.56;;;10.16;67.98
31299;BME280;17927;52.350;13.402;2023-12-20T02:09:56;100511.50;;;10.16;68.13
31299;BME280;17927;52.350;13.402;2023-12-20T02:12:21;100501.59;;;10.17;68.21
31299;BME280;17927;52.350;13.402;2023-12-20T02:14:46;100499.88;;;10.16;68.41
31299;BME280;17927;52.350;13.402;2023-12-20T02:17:12;100500.88;;;10.15;68.21
31299;BME280;17927;52.350;13.402;2023-12-20T02:19:37;100515.19;;;10.15;68.32
31299;BME280;17927;52.350;13.402;2023-12-20T02:22:11;100513.22;;;10.17;68.36
31299;BME280;17927;52.350;13.402;2023-12-20T02:24:37;100512.38;;;10.17;68.40
31299;BME280;17927;52.350;13.402;2023-12-20T02:27:03;100514.09;;;10.18;68.49
31299;BME280;17927;52.350;13.402;2023-12-20T02:29:30;100513.09;;;10.19;68.54
31299;BME280;17927;52.350;13.402;2023-12-20T02:31:55;100520.16;;;10.20;68.61
31299;BME280;17927;52.350;13.402;2023-12-20T02:34:21;100520.03;;;10.21;68.44
31299;BME280;17927;52.350;13.402;2023-12-20T02:36:46;100514.47;;;10.23;68.47
31299;BME280;17927;52.350;13.402;2023-12-20T02:39:11;100516.19;;;10.24;68.57
31299;BME280;17927;52.350;13.402;2023-12-20T02:41:36;100514.34;;;10.25;68.58
31299;BME280;17927;52.350;13.402;2023-12-20T02:44:03;100509.66;;;10.27;68.83
31299;BME280;17927;52.350;13.402;2023-12-20T02:46:28;100504.09;;;10.28;68.58
31299;BME280;17927;52.350;13.402;2023-12-20T02:48:53;100499.53;;;10.29;68.70
31299;BME280;17927;52.350;13.402;2023-12-20T02:51:18;100494.00;;;10.30;68.67
31299;BME280;17927;52.350;13.402;2023-12-20T02:53:43;100500.09;;;10.32;68.89
31299;BME280;17927;52.350;13.402;2023-12-20T02:56:09;100499.94;;;10.34;68.78
31299;BME280;17927;52.350;13.402;2023-12-20T02:58:34;100499.13;;;10.33;68.56
31299;BME280;17927;52.350;13.402;2023-12-20T03:00:59;100497.09;;;10.35;68.83
31299;BME280;17927;52.350;13.402;2023-12-20T03:03:24;100490.59;;;10.38;68.76
31299;BME280;17927;52.350;13.402;2023-12-20T03:05:50;100497.53;;;10.41;68.79
31299;BME280;17927;52.350;13.402;2023-12-20T03:08:15;100500.94;;;10.43;68.92
31299;BME280;17927;52.350;13.402;2023-12-20T03:10:40;100504.34;;;10.45;68.72
31299;BME280;17927;52.350;13.402;2023-12-20T03:13:06;100512.28;;;10.46;68.90
31299;BME280;17927;52.350;13.402;2023-12-20T03:15:31;100519.41;;;10.47;68.66
31299;BME280;17927;52.350;13.402;2023-12-20T03:17:56;100517.41;;;10.49;68.59
31299;BME280;17927;52.350;13.402;2023-12-20T03:20:24;100523.69;;;10.50;68.97
31299;BME280;17927;52.350;13.402;2023-12-20T03:22:51;100526.75;;;10.55;68.96
31299;BME280;17927;52.350;13.402;2023-12-20T03:25:16;100532.03;;;10.57;69.04
31299;BME280;17927;52.350;13.402;2023-12-20T03:27:41;100526.19;;;10.61;69.06
31299;BME280;17927;52.350;13.402;2023-12-20T03:30:07;100523.19;;;10.64;68.86
31299;BME280;17927;52.350;13.402;2023-12-20T03:32:32;100526.44;;;10.68;68.68
31299;BME280;17927;52.350;13.402;2023-12-20T03:34:57;100517.16;;;10.71;68.75
31299;BME280;17927;52.350;13.402;2023-12-20T03:37:23;100523.97;;;10.75;68.73
31299;BME280;17927;52.350;13.402;2023-12-20T03:39:48;100536.31;;;10.77;68.66
31299;BME280;17927;52.350;13.402;2023-12-20T03:42:13;100509.00;;;10.80;68.71
31299;BME280;17927;52.350;13.402;2023-12-20T03:44:39;100513.41;;;10.81;68.72
31299;BME280;17927;52.350;13.402;2023-12-20T03:47:05;100524.06;;;10.83;68.42
31299;BME280;17927;52.350;13.402;2023-12-20T03:49:30;100513.13;;;10.85;68.54
31299;BME280;17927;52.350;13.402;2023-12-20T03:51:55;100520.22;;;10.86;68.37
31299;BME280;17927;52.350;13.402;2023-12-20T03:54:21;100520.06;;;10.87;68.63
31299;BME280;17927;52.350;13.402;2023-12-20T03:56:46;100514.53;;;10.89;68.68
31299;BME280;17927;52.350;13.402;2023-12-20T03:59:11;100516.06;;;10.91;68.53
31299;BME280;17927;52.350;13.402;2023-12-20T04:01:36;100506.09;;;10.92;68.45
31299;BME280;17927;52.350;13.402;2023-12-20T04:04:02;100505.97;;;10.93;68.53
31299;BME280;17927;52.350;13.402;2023-12-20T04:06:27;100496.00;;;10.94;68.47
31299;BME280;17927;52.350;13.402;2023-12-20T04:08:53;100499.41;;;10.96;68.49
31299;BME280;17927;52.350;13.402;2023-12-20T04:11:18;100490.44;;;10.95;68.46
31299;BME280;17927;52.350;13.402;2023-12-20T04:13:43;100490.28;;;10.97;68.49
31299;BME280;17927;52.350;13.402;2023-12-20T04:16:08;100493.88;;;10.98;68.17
31299;BME280;17927;52.350;13.402;2023-12-20T04:18:34;100488.47;;;10.98;68.18
31299;BME280;17927;52.350;13.402;2023-12-20T04:20:59;100488.47;;;10.98;68.39
31299;BME280;17927;52.350;13.402;2023-12-20T04:23:24;100487.59;;;10.97;68.19
31299;BME280;17927;52.350;13.402;2023-12-20T04:25:49;100486.75;;;10.96;68.00
31299;BME280;17927;52.350;13.402;2023-12-20T04:28:15;100483.19;;;10.96;68.17
31299;BME280;17927;52.350;13.402;2023-12-20T04:30:41;100490.44;;;10.95;67.90
31299;BME280;17927;52.350;13.402;2023-12-20T04:33:07;100482.66;;;10.92;67.83
31299;BME280;17927;52.350;13.402;2023-12-20T04:35:32;100491.75;;;10.91;67.57
31299;BME280;17927;52.350;13.402;2023-12-20T04:37:57;100487.66;;;10.87;67.57
31299;BME280;17927;52.350;13.402;2023-12-20T04:40:22;100491.34;;;10.86;67.50
31299;BME280;17927;52.350;13.402;2023-12-20T04:42:48;100480.84;;;10.83;67.28
31299;BME280;17927;52.350;13.402;2023-12-20T04:45:13;100477.47;;;10.81;67.16
31299;BME280;17927;52.350;13.402;2023-12-20T04:47:50;100480.47;;;10.78;67.11
31299;BME280;17927;52.350;13.402;2023-12-20T04:50:15;100486.16;;;10.75;66.91
31299;BME280;17927;52.350;13.402;2023-12-20T04:52:41;100488.44;;;10.70;66.93
31299;BME280;17927;52.350;13.402;2023-12-20T04:55:06;100485.91;;;10.68;66.83
31299;BME280;17927;52.350;13.402;2023-12-20T04:57:31;100488.91;;;10.65;66.62
31299;BME280;17927;52.350;13.402;2023-12-20T04:59:57;100485.66;;;10.61;66.70
31299;BME280;17927;52.350;13.402;2023-12-20T05:02:22;100490.34;;;10.59;66.62
31299;BME280;17927;52.350;13.402;2023-12-20T05:04:59;100495.94;;;10.58;66.78
31299;BME280;17927;52.350;13.402;2023-12-20T05:07:24;100496.22;;;10.55;66.79
31299;BME280;17927;52.350;13.402;2023-12-20T05:09:50;100484.53;;;10.54;66.94
31299;BME280;17927;52.350;13.402;2023-12-20T05:12:15;100494.50;;;10.54;66.58
31299;BME280;17927;52.350;13.402;2023-12-20T05:14:40;100497.22;;;10.54;66.35
31299;BME280;17927;52.350;13.402;2023-12-20T05:17:05;100500.91;;;10.53;66.19
31299;BME280;17927;52.350;13.402;2023-12-20T05:19:31;100500.38;;;10.49;66.26
31299;BME280;17927;52.350;13.402;2023-12-20T05:22:00;100502.34;;;10.47;65.73
31299;BME280;17927;52.350;13.402;2023-12-20T05:24:25;100497.25;;;10.44;65.99
31299;BME280;17927;52.350;13.402;2023-12-20T05:26:50;100507.34;;;10.42;66.09
31299;BME280;17927;52.350;13.402;2023-12-20T05:29:15;100504.66;;;10.42;65.96
31299;BME280;17927;52.350;13.402;2023-12-20T05:31:42;100510.03;;;10.42;65.95
31299;BME280;17927;52.350;13.402;2023-12-20T05:34:07;100515.16;;;10.45;66.14
31299;BME280;17927;52.350;13.402;2023-12-20T05:36:33;100497.78;;;10.47;65.84
31299;BME280;17927;52.350;13.402;2023-12-20T05:38:58;100503.06;;;10.49;65.49
31299;BME280;17927;52.350;13.402;2023-12-20T05:41:23;100510.16;;;10.50;65.02
31299;BME280;17927;52.350;13.402;2023-12-20T05:43:48;100497.66;;;10.49;64.75
31299;BME280;17927;52.350;13.402;2023-12-20T05:46:14;100498.94;;;10.45;64.50
31299;BME280;17927;52.350;13.402;2023-12-20T05:48:39;100515.44;;;10.42;64.53
31299;BME280;17927;52.350;13.402;2023-12-20T05:51:04;100504.19;;;10.36;64.01
31299;BME280;17927;52.350;13.402;2023-12-20T05:53:29;100515.31;;;10.33;64.07
31299;BME280;17927;52.350;13.402;2023-12-20T05:55:55;100501.22;;;10.30;63.74
31299;BME280;17927;52.350;13.402;2023-12-20T05:58:20;100500.13;;;10.23;63.43
31299;BME280;17927;52.350;13.402;2023-12-20T06:00:45;100499.88;;;10.16;63.52
31299;BME280;17927;52.350;13.402;2023-12-20T06:03:10;100488.81;;;10.09;63.40
31299;BME280;17927;52.350;13.402;2023-12-20T06:05:36;100481.28;;;10.03;63.50
31299;BME280;17927;52.350;13.402;2023-12-20T06:08:01;100488.28;;;9.96;63.37
31299;BME280;17927;52.350;13.402;2023-12-20T06:10:28;100492.38;;;9.90;63.31
31299;BME280;17927;52.350;13.402;2023-12-20T06:12:53;100481.19;;;9.85;63.15
31299;BME280;17927;52.350;13.402;2023-12-20T06:15:19;100477.25;;;9.79;62.95
31299;BME280;17927;52.350;13.402;2023-12-20T06:17:45;100473.25;;;9.73;63.04
31299;BME280;17927;52.350;13.402;2023-12-20T06:20:11;100479.25;;;9.67;63.29
31299;BME280;17927;52.350;13.402;2023-12-20T06:22:37;100483.22;;;9.63;63.61
31299;BME280;17927;52.350;13.402;2023-12-20T06:25:02;100474.56;;;9.59;63.40
31299;BME280;17927;52.350;13.402;2023-12-20T06:27:28;100473.13;;;9.55;63.51
31299;BME280;17927;52.350;13.402;2023-12-20T06:29:53;100486.78;;;9.54;63.30
31299;BME280;17927;52.350;13.402;2023-12-20T06:32:19;100479.97;;;9.50;63.45
31299;BME280;17927;52.350;13.402;2023-12-20T06:34:44;100478.41;;;9.47;63.77
31299;BME280;17927;52.350;13.402;2023-12-20T06:37:09;100489.47;;;9.44;63.65
31299;BME280;17927;52.350;13.402;2023-12-20T06:39:34;100489.91;;;9.39;63.69
31299;BME280;17927;52.350;13.402;2023-12-20T06:42:00;100490.91;;;9.38;63.88
31299;BME280;17927;52.350;13.402;2023-12-20T06:44:25;100483.25;;;9.34;63.76
31299;BME280;17927;52.350;13.402;2023-12-20T06:46:50;100482.53;;;9.32;64.23
31299;BME280;17927;52.350;13.402;2023-12-20T06:49:15;100487.19;;;9.29;64.09
31299;BME280;17927;52.350;13.402;2023-12-20T06:51:41;100487.19;;;9.29;64.25
31299;BME280;17927;52.350;13.402;2023-12-20T06:54:06;100490.03;;;9.28;64.22
31299;BME280;17927;52.350;13.402;2023-12-20T06:56:32;100479.41;;;9.26;64.33
31299;BME280;17927;52.350;13.402;2023-12-20T06:58:57;100481.25;;;9.26;64.19
31299;BME280;17927;52.350;13.402;2023-12-20T07:01:22;100474.16;;;9.25;64.26
31299;BME280;17927;52.350;13.402;2023-12-20T07:03:47;100487.75;;;9.23;64.47
31299;BME280;17927;52.350;13.402;2023-12-20T07:06:13;100484.22;;;9.23;64.51
31299;BME280;17927;52.350;13.402;2023-12-20T07:08:41;100486.91;;;9.23;64.51
31299;BME280;17927;52.350;13.402;2023-12-20T07:14:21;100483.78;;;9.18;64.62
31299;BME280;17927;52.350;13.402;2023-12-20T07:16:47;100484.50;;;9.20;64.53
31299;BME280;17927;52.350;13.402;2023-12-20T07:19:12;100487.19;;;9.20;64.80
31299;BME280;17927;52.350;13.402;2023-12-20T07:21:37;100482.63;;;9.20;64.70
31299;BME280;17927;52.350;13.402;2023-12-20T07:24:02;100490.59;;;9.22;64.77
31299;BME280;17927;52.350;13.402;2023-12-20T07:26:28;100487.75;;;9.23;64.81
31299;BME280;17927;52.350;13.402;2023-12-20T07:28:53;100484.94;;;9.25;64.84
31299;BME280;17927;52.350;13.402;2023-12-20T07:31:18;100480.53;;;9.24;64.99
31299;BME280;17927;52.350;13.402;2023-12-20T07:33:43;100484.94;;;9.25;64.94
31299;BME280;17927;52.350;13.402;2023-12-20T07:36:09;100485.63;;;9.27;64.46
31299;BME280;17927;52.350;13.402;2023-12-20T07:38:34;100487.47;;;9.26;64.71
31299;BME280;17927;52.350;13.402;2023-12-20T07:41:00;100497.13;;;9.29;64.51
31299;BME280;17927;52.350;13.402;2023-12-20T07:43:25;100479.94;;;9.30;64.58
31299;BME280;17927;52.350;13.402;2023-12-20T07:45:50;100482.66;;;9.30;64.37
31299;BME280;17927;52.350;13.402;2023-12-20T07:48:15;100477.25;;;9.30;64.44
31299;BME280;17927;52.350;13.402;2023-12-20T07:50:41;100486.22;;;9.31;64.65
31299;BME280;17927;52.350;13.402;2023-12-20T07:53:07;100482.38;;;9.33;64.48
31299;BME280;17927;52.350;13.402;2023-12-20T07:55:32;100478.69;;;9.34;64.37
31299;BME280;17927;52.350;13.402;2023-12-20T07:57:57;100477.53;;;9.37;64.45
31299;BME280;17927;52.350;13.402;2023-12-20T08:00:23;100481.81;;;9.39;64.46
31299;BME280;17927;52.350;13.402;2023-12-20T08:02:48;100483.53;;;9.40;64.25
31299;BME280;17927;52.350;13.402;2023-12-20T08:05:13;100473.56;;;9.41;64.25
31299;BME280;17927;52.350;13.402;2023-12-20T08:07:38;100476.13;;;9.42;64.14
31299;BME280;17927;52.350;13.402;2023-12-20T08:10:04;100464.22;;;9.45;64.24
31299;BME280;17927;52.350;13.402;2023-12-20T08:12:30;100473.84;;;9.48;64.15
31299;BME280;17927;52.350;13.402;2023-12-20T08:14:56;100476.44;;;9.49;64.06
31299;BME280;17927;52.350;13.402;2023-12-20T08:17:22;100477.25;;;9.50;64.19
31299;BME280;17927;52.350;13.402;2023-12-20T08:19:48;100483.38;;;9.52;63.97
31299;BME280;17927;52.350;13.402;2023-12-20T08:22:13;100472.44;;;9.53;64.24
31299;BME280;17927;52.350;13.402;2023-12-20T08:24:38;100468.91;;;9.53;63.83
31299;BME280;17927;52.350;13.402;2023-12-20T08:27:04;100466.03;;;9.54;63.83
31299;BME280;17927;52.350;13.402;2023-12-20T08:29:30;100460.66;;;9.54;63.97
31299;BME280;17927;52.350;13.402;2023-12-20T08:31:55;100457.25;;;9.52;63.59
31299;BME280;17927;52.350;13.402;2023-12-20T08:34:20;100455.69;;;9.50;63.57
31299;BME280;17927;52.350;13.402;2023-12-20T08:36:46;100451.28;;;9.49;63.66
31299;BME280;17927;52.350;13.402;2023-12-20T08:39:11;100457.69;;;9.48;63.55
31299;BME280;17927;52.350;13.402;2023-12-20T08:41:36;100462.22;;;9.47;63.75
31299;BME280;17927;52.350;13.402;2023-12-20T08:44:02;100459.38;;;9.49;63.83
31299;BME280;17927;52.350;13.402;2023-12-20T08:46:28;100456.69;;;9.49;63.74
31299;BME280;17927;52.350;13.402;2023-12-20T08:48:54;100444.06;;;9.49;63.93
31299;BME280;17927;52.350;13.402;2023-12-20T08:51:19;100448.31;;;9.52;64.06
31299;BME280;17927;52.350;13.402;2023-12-20T08:53:44;100448.31;;;9.52;63.93
31299;BME280;17927;52.350;13.402;2023-12-20T08:56:10;100447.31;;;9.53;64.04
31299;BME280;17927;52.350;13.402;2023-12-20T08:58:35;100451.56;;;9.55;63.90
31299;BME280;17927;52.350;13.402;2023-12-20T09:01:01;100443.34;;;9.57;64.02
31299;BME280;17927;52.350;13.402;2023-12-20T09:03:26;100446.72;;;9.59;63.85
31299;BME280;17927;52.350;13.402;2023-12-20T09:05:51;100442.03;;;9.61;63.88
31299;BME280;17927;52.350;13.402;2023-12-20T09:08:16;100444.63;;;9.63;63.66
31299;BME280;17927;52.350;13.402;2023-12-20T09:10:42;100438.22;;;9.64;63.69
31299;BME280;17927;52.350;13.402;2023-12-20T09:13:07;100437.06;;;9.66;63.77
31299;BME280;17927;52.350;13.402;2023-12-20T09:15:32;100443.03;;;9.70;63.79
31299;BME280;17927;52.350;13.402;2023-12-20T09:17:59;100440.75;;;9.75;64.08
31299;BME280;17927;52.350;13.402;2023-12-20T09:20:24;100441.31;;;9.79;63.77
31299;BME280;17927;52.350;13.402;2023-12-20T09:22:52;100446.41;;;9.82;63.62
31299;BME280;17927;52.350;13.402;2023-12-20T09:25:17;100433.47;;;9.85;63.59
31299;BME280;17927;52.350;13.402;2023-12-20T09:27:43;100437.75;;;9.88;63.31
31299;BME280;17927;52.350;13.402;2023-12-20T09:30:08;100434.75;;;9.91;63.32
31299;BME280;17927;52.350;13.402;2023-12-20T09:32:34;100430.03;;;9.93;63.54
31299;BME280;17927;52.350;13.402;2023-12-20T09:34:59;100429.91;;;9.95;63.21
31299;BME280;17927;52.350;13.402;2023-12-20T09:37:28;100424.38;;;9.96;63.02
31299;BME280;17927;52.350;13.402;2023-12-20T09:39:54;100428.59;;;9.99;63.27
31299;BME280;17927;52.350;13.402;2023-12-20T09:42:56;100430.88;;;10.03;62.73
31299;BME280;17927;52.350;13.402;2023-12-20T09:45:21;100416.53;;;10.03;62.84
31299;BME280;17927;52.350;13.402;2023-12-20T09:47:49;100426.03;;;10.07;62.79
31299;BME280;17927;52.350;13.402;2023-12-20T09:50:15;100421.19;;;10.11;62.61
31299;BME280;17927;52.350;13.402;2023-12-20T09:52:42;100424.59;;;10.13;62.66
31299;BME280;17927;52.350;13.402;2023-12-20T09:55:08;100419.19;;;10.13;62.27
31299;BME280;17927;52.350;13.402;2023-12-20T09:57:34;100425.31;;;10.15;62.21
31299;BME280;17927;52.350;13.402;2023-12-20T10:00:00;100412.50;;;10.17;62.46
31299;BME280;17927;52.350;13.402;2023-12-20T10:02:25;100412.34;;;10.18;62.20
31299;BME280;17927;52.350;13.402;2023-12-20T10:04:55;100412.06;;;10.21;62.48
31299;BME280;17927;52.350;13.402;2023-12-20T10:07:20;100401.97;;;10.24;62.13
31299;BME280;17927;52.350;13.402;2023-12-20T10:09:47;100406.38;;;10.25;61.70
31299;BME280;17927;52.350;13.402;2023-12-20T10:12:13;100393.69;;;10.25;61.96
31299;BME280;17927;52.350;13.402;2023-12-20T10:14:39;100386.16;;;10.29;62.12
31299;BME280;17927;52.350;13.402;2023-12-20T10:17:05;100384.16;;;10.31;62.27
31299;BME280;17927;52.350;13.402;2023-12-20T10:19:31;100379.44;;;10.33;61.95
31299;BME280;17927;52.350;13.402;2023-12-20T10:22:00;100380.16;;;10.35;61.62
31299;BME280;17927;52.350;13.402;2023-12-20T10:24:28;100387.41;;;10.34;61.77
31299;BME280;17927;52.350;13.402;2023-12-20T10:27:07;100375.59;;;10.35;61.48
31299;BME280;17927;52.350;13.402;2023-12-20T10:29:35;100369.19;;;10.36;61.68
31299;BME280;17927;52.350;13.402;2023-12-20T10:32:24;100367.09;;;10.40;61.59
31299;BME280;17927;52.350;13.402;2023-12-20T10:34:50;100354.28;;;10.42;61.69
31299;BME280;17927;52.350;13.402;2023-12-20T10:37:15;100349.44;;;10.46;61.49
31299;BME280;17927;52.350;13.402;2023-12-20T10:39:42;100345.56;;;10.48;61.25
31299;BME280;17927;52.350;13.402;2023-12-20T10:42:09;100341.56;;;10.53;61.10
31299;BME280;17927;52.350;13.402;2023-12-20T10:44:36;100344.09;;;10.54;61.19
31299;BME280;17927;52.350;13.402;2023-12-20T10:47:01;100335.88;;;10.56;61.03
31299;BME280;17927;52.350;13.402;2023-12-20T10:49:28;100323.91;;;10.58;60.99
31299;BME280;17927;52.350;13.402;2023-12-20T10:51:54;100325.28;;;10.62;60.80
31299;BME280;17927;52.350;13.402;2023-12-20T10:54:22;100313.50;;;10.63;60.37
31299;BME280;17927;52.350;13.402;2023-12-20T10:56:48;100316.91;;;10.65;60.24
31299;BME280;17927;52.350;13.402;2023-12-20T10:59:19;100314.03;;;10.67;60.36
31299;BME280;17927;52.350;13.402;2023-12-20T11:01:45;100307.63;;;10.68;60.27
31299;BME280;17927;52.350;13.402;2023-12-20T11:04:16;100294.94;;;10.69;59.93
31299;BME280;17927;52.350;13.402;2023-12-20T11:06:53;100305.63;;;10.70;59.96
31299;BME280;17927;52.350;13.402;2023-12-20T11:09:29;100285.00;;;10.69;59.72
31299;BME280;17927;52.350;13.402;2023-12-20T11:12:16;100287.72;;;10.69;59.23
31299;BME280;17927;52.350;13.402;2023-12-20T11:14:50;100277.91;;;10.68;59.54
31299;BME280;17927;52.350;13.402;2023-12-20T11:17:17;100283.13;;;10.70;59.44
31299;BME280;17927;52.350;13.402;2023-12-20T11:20:04;100282.13;;;10.71;59.47
31299;BME280;17927;52.350;13.402;2023-12-20T11:22:31;100275.03;;;10.70;59.14
31299;BME280;17927;52.350;13.402;2023-12-20T11:25:03;100265.09;;;10.70;59.15
31299;BME280;17927;52.350;13.402;2023-12-20T11:27:30;100278.44;;;10.72;59.31
31299;BME280;17927;52.350;13.402;2023-12-20T11:29:56;100269.50;;;10.71;59.53
31299;BME280;17927;52.350;13.402;2023-12-20T11:34:54;100265.22;;;10.69;59.95
31299;BME280;17927;52.350;13.402;2023-12-20T11:37:20;100249.19;;;10.67;59.94
31299;BME280;17927;52.350;13.402;2023-12-20T11:39:45;100245.97;;;10.63;59.97
31299;BME280;17927;52.350;13.402;2023-12-20T11:42:10;100240.88;;;10.60;59.99
31299;BME280;17927;52.350;13.402;2023-12-20T11:44:37;100244.75;;;10.58;59.83
31299;BME280;17927;52.350;13.402;2023-12-20T11:47:02;100213.31;;;10.57;59.50
31299;BME280;17927;52.350;13.402;2023-12-20T11:49:27;100213.63;;;10.54;59.90
31299;BME280;17927;52.350;13.402;2023-12-20T11:51:55;100201.84;;;10.55;59.60
31299;BME280;17927;52.350;13.402;2023-12-20T11:54:21;100227.13;;;10.54;59.71
31299;BME280;17927;52.350;13.402;2023-12-20T11:56:47;100223.44;;;10.55;59.79
31299;BME280;17927;52.350;13.402;2023-12-20T11:59:12;100207.22;;;10.55;59.88
31299;BME280;17927;52.350;13.402;2023-12-20T12:01:38;100220.56;;;10.56;59.69
31299;BME280;17927;52.350;13.402;2023-12-20T12:04:04;100201.53;;;10.58;60.01
31299;BME280;17927;52.350;13.402;2023-12-20T12:06:29;100212.84;;;10.61;60.20
31299;BME280;17927;52.350;13.402;2023-12-20T12:08:55;100194.94;;;10.60;59.82
31299;BME280;17927;52.350;13.402;2023-12-20T12:11:21;100202.19;;;10.60;59.79
31299;BME280;17927;52.350;13.402;2023-12-20T12:13:46;100199.50;;;10.60;59.80
31299;BME280;17927;52.350;13.402;2023-12-20T12:16:11;100189.56;;;10.60;59.63
31299;BME280;17927;52.350;13.402;2023-12-20T12:18:37;100200.34;;;10.60;60.19
31299;BME280;17927;52.350;13.402;2023-12-20T12:21:02;100184.16;;;10.60;59.64
31299;BME280;17927;52.350;13.402;2023-12-20T12:23:28;100176.75;;;10.62;59.63
31299;BME280;17927;52.350;13.402;2023-12-20T12:25:54;100169.78;;;10.60;59.49
31299;BME280;17927;52.350;13.402;2023-12-20T12:28:20;100159.84;;;10.60;59.52
31299;BME280;17927;52.350;13.402;2023-12-20T12:30:58;100152.75;;;10.59;59.65
31299;BME280;17927;52.350;13.402;2023-12-20T12:33:25;100136.53;;;10.59;59.77
31299;BME280;17927;52.350;13.402;2023-12-20T12:35:51;100134.84;;;10.58;60.06
31299;BME280;17927;52.350;13.402;2023-12-20T12:38:16;100123.03;;;10.59;60.14
31299;BME280;17927;52.350;13.402;2023-12-20T12:40:43;100128.44;;;10.59;60.01
31299;BME280;17927;52.350;13.402;2023-12-20T12:43:08;100117.63;;;10.59;60.46